Main page
METAR-TAF:

METAR-TAF

Airports :

Huesca–Pirineos Airport

Huesca, Spain

latitude: 42-04-32N, longitude: 0-18-58W, elevation: 539 m

Current weather observation

The report was made 31 minutes ago, at 15:00 UTC
Wind 6 kt from the Southwest, varying between South/Southeast and West/Northwest
Temperature 16°C
Humidity 39%
Pressure 1016 hPa
Visibility 10 km or more
no clouds below 1500 m and no cumulonimbus

METAR: LEHC 281500Z 23006KT 160V300 CAVOK 16/02 Q1016

Time: 16:31 (15:31 UTC)

Forecast

The report was made 1 hour and 31 minutes ago, at 14:00 UTC
Forecast valid from 28 at 15 UTC to 29 at 15 UTC
Wind 9 kt from the West
Visibility 10 km or more
Scattered clouds at a height of 3000 ft
Becoming
from 28 at 18 UTC to 28 at 20 UTC
Wind 4 kt from variable directions
Becoming
from 29 at 10 UTC to 29 at 12 UTC
Wind 9 kt from the West

TAF: LEHC 281400Z 2815/2915 26009KT 9999 SCT030 TX18/2914Z TN04/2906Z BECMG 2818/2820 VRB04KT BECMG 2910/2912 26009KT

Weather observations and forecasts of more than 4000 airports (METAR and TAF reports).

The available stations are represented by yellow and red dots on the map.

Hover mouse over dot to see the name of the station.

Then click to see weather observations and forecasts.

To change the map : click on the green buttons with a black cross to zoom in, on the green button with a dash to zoom out, or on the green arrows for adjacent maps.


METAR-TAF: